Time;durP1;ratioP1;P1;durP2;ratioP2;P2;SDS_P1;SDS_P2;PMS_P1;PMS_P2;Temp;Humidity;BMP_temperature;BMP_pressure;BME280_temperature;BME280_humidity;BME280_pressure;Samples;Min_cycle;Max_cycle;Signal;HPM_P1;HPM_P2
2021/05/20 00:01:11;;;;;;;3.97;1.42;;;;;;;11.88;97.28;101070.16;6214896;23;20090;-87
2021/05/20 00:03:37;;;;;;;3.75;1.00;;;;;;;11.89;97.11;101077.16;6215562;23;20092;-88
2021/05/20 00:06:04;;;;;;;3.63;1.17;;;;;;;11.84;96.24;101073.09;6215474;23;20419;-88
2021/05/20 00:08:30;;;;;;;3.17;0.60;;;;;;;11.74;96.64;101067.53;6215607;23;20490;-88
2021/05/20 00:10:55;;;;;;;3.38;0.80;;;;;;;11.74;96.24;101072.81;6215203;23;20076;-88
2021/05/20 00:13:21;;;;;;;4.07;1.58;;;;;;;11.66;96.78;101072.44;6214946;23;20032;-88
2021/05/20 00:15:46;;;;;;;2.78;1.38;;;;;;;11.68;96.75;101058.25;6215070;23;20007;-88
2021/05/20 00:18:11;;;;;;;4.35;1.02;;;;;;;11.73;95.80;101060.63;6215056;23;20446;-88
2021/05/20 00:20:37;;;;;;;4.38;0.98;;;;;;;11.79;94.86;101059.34;6213052;23;20332;-88
2021/05/20 00:23:02;;;;;;;4.90;1.13;;;;;;;11.78;95.28;101063.78;6214847;23;19997;-88
2021/05/20 00:25:27;;;;;;;7.38;1.33;;;;;;;11.52;96.16;101058.34;6215154;23;20092;-88
2021/05/20 00:27:53;;;;;;;4.88;1.20;;;;;;;11.50;96.46;101057.59;6215108;23;20415;-88
2021/05/20 00:30:18;;;;;;;4.15;1.00;;;;;;;11.45;96.49;101053.56;6215510;23;20473;-88
2021/05/20 00:32:44;;;;;;;4.68;0.80;;;;;;;11.33;96.85;101052.53;6214860;23;20000;-88
2021/05/20 00:35:09;;;;;;;2.17;0.98;;;;;;;11.38;96.36;101055.72;6214132;23;20036;-88
2021/05/20 00:37:35;;;;;;;2.85;1.27;;;;;;;11.45;96.95;101056.19;6214741;23;20001;-88
2021/05/20 00:40:00;;;;;;;4.25;0.90;;;;;;;11.38;96.14;101054.88;6214859;23;20004;-88
2021/05/20 00:42:26;;;;;;;4.55;1.05;;;;;;;11.38;96.49;101055.72;6214793;23;20004;-88
2021/05/20 00:44:59;;;;;;;7.40;2.05;;;;;;;11.43;96.64;101053.69;6214110;23;20005;-89
2021/05/20 00:47:26;;;;;;;2.45;1.00;;;;;;;11.35;96.21;101050.63;6214945;23;20000;-88
2021/05/20 00:49:52;;;;;;;2.25;0.80;;;;;;;11.24;95.86;101047.84;6214685;23;20012;-89
2021/05/20 00:52:18;;;;;;;5.15;1.23;;;;;;;11.07;94.86;101052.31;6214759;23;20362;-89
2021/05/20 00:54:47;;;;;;;3.38;1.30;;;;;;;11.04;97.21;101039.38;6214852;23;20434;-88
2021/05/20 00:57:14;;;;;;;4.43;1.10;;;;;;;10.96;96.79;101043.38;6214715;23;20011;-88
2021/05/20 00:59:39;;;;;;;6.18;1.20;;;;;;;10.71;98.19;101050.91;6214973;23;20090;-89
2021/05/20 01:02:05;;;;;;;6.55;1.33;;;;;;;10.64;99.00;101039.09;6214826;23;20009;-88
2021/05/20 01:04:30;;;;;;;7.70;1.50;;;;;;;10.63;99.05;101041.81;6214463;23;20000;-88
2021/05/20 01:06:56;;;;;;;2.17;1.13;;;;;;;10.61;99.79;101035.81;6214048;23;20012;-89
2021/05/20 01:09:21;;;;;;;5.65;1.20;;;;;;;10.62;99.66;101040.94;6213160;23;20497;-89
2021/05/20 01:11:47;;;;;;;5.05;1.20;;;;;;;10.63;100.00;101036.56;6212556;23;20015;-89
2021/05/20 01:14:12;;;;;;;0.85;0.73;;;;;;;10.59;100.00;101035.03;6212823;23;20009;-89
2021/05/20 01:16:38;;;;;;;7.35;1.30;;;;;;;10.62;100.00;101040.09;6212881;23;20001;-89
2021/05/20 01:19:04;;;;;;;6.22;1.65;;;;;;;10.59;100.00;101030.63;6213641;23;20005;-89
2021/05/20 01:21:30;;;;;;;4.78;1.45;;;;;;;10.60;100.00;101029.69;6214261;23;20502;-89
2021/05/20 01:23:56;;;;;;;2.72;1.00;;;;;;;10.62;100.00;101025.19;6214414;23;20001;-89
2021/05/20 01:26:21;;;;;;;5.45;1.00;;;;;;;10.60;100.00;101020.97;6214712;23;20012;-89
2021/05/20 01:28:47;;;;;;;2.80;1.23;;;;;;;10.60;100.00;101016.53;6214831;23;20031;-88
2021/05/20 01:31:12;;;;;;;3.42;1.10;;;;;;;10.56;100.00;101019.44;6214219;23;20004;-89
2021/05/20 01:33:38;;;;;;;4.10;1.15;;;;;;;10.55;100.00;101021.25;6214666;23;20009;-87
2021/05/20 01:36:04;;;;;;;5.72;1.30;;;;;;;10.55;99.99;101015.16;6214306;23;20054;-89
2021/05/20 01:41:12;;;;;;;2.75;1.13;;;;;;;10.71;98.87;101006.28;6214758;23;20083;-88
2021/05/20 01:43:39;;;;;;;3.75;1.08;;;;;;;10.76;99.15;101007.78;6214098;23;20050;-88
2021/05/20 01:46:06;;;;;;;2.90;0.77;;;;;;;10.78;99.33;101006.78;6214182;23;20005;-88
2021/05/20 01:48:39;;;;;;;2.30;1.08;;;;;;;10.87;98.90;101005.38;6214560;23;20304;-88
2021/05/20 01:51:12;;;;;;;4.28;1.05;;;;;;;10.88;99.01;101004.41;6214315;23;20000;-89
2021/05/20 01:53:39;;;;;;;3.97;1.20;;;;;;;10.76;99.65;100997.28;6214304;23;20024;-88
2021/05/20 01:56:06;;;;;;;2.42;1.20;;;;;;;10.74;98.48;100996.50;6214138;23;20012;-88
2021/05/20 01:58:32;;;;;;;8.75;1.48;;;;;;;10.52;100.00;100998.66;6214666;23;20000;-89
2021/05/20 02:00:57;;;;;;;5.10;1.65;;;;;;;10.39;100.00;100992.41;6214251;23;20051;-89
2021/05/20 02:03:24;;;;;;;7.47;1.63;;;;;;;10.44;100.00;100989.50;6214671;23;20009;-89
2021/05/20 02:05:50;;;;;;;5.78;1.25;;;;;;;10.54;100.00;100980.16;6214457;23;20019;-89
2021/05/20 02:08:15;;;;;;;4.20;1.33;;;;;;;10.64;100.00;100980.44;6214507;23;20101;-89
2021/05/20 02:10:41;;;;;;;5.38;1.25;;;;;;;10.69;100.00;100971.38;6213949;23;20004;-89
2021/05/20 02:13:06;;;;;;;5.22;1.45;;;;;;;10.74;100.00;100968.47;6214077;23;20001;-88
2021/05/20 02:15:33;;;;;;;4.30;1.42;;;;;;;10.83;100.00;100965.28;6214116;23;20012;-87
2021/05/20 02:17:59;;;;;;;5.50;1.20;;;;;;;10.88;100.00;100962.38;6214253;23;20331;-88
2021/05/20 02:20:24;;;;;;;5.05;1.05;;;;;;;10.93;100.00;100956.88;6214055;23;20011;-89
2021/05/20 02:22:50;;;;;;;5.10;1.02;;;;;;;10.96;100.00;100952.28;6214203;23;20024;-88
2021/05/20 02:25:16;;;;;;;8.63;1.40;;;;;;;11.01;100.00;100958.06;6213862;23;20104;-89
2021/05/20 02:27:42;;;;;;;3.28;1.10;;;;;;;10.96;100.00;100941.75;6214199;23;20005;-89
2021/05/20 02:30:09;;;;;;;3.88;1.38;;;;;;;10.94;100.00;100948.03;6214138;23;20335;-89
2021/05/20 02:32:34;;;;;;;7.28;1.58;;;;;;;10.85;100.00;100942.41;6213801;23;20004;-89
2021/05/20 02:34:59;;;;;;;3.35;1.40;;;;;;;10.89;100.00;100933.41;6214196;23;20084;-88
2021/05/20 02:37:25;;;;;;;6.57;1.63;;;;;;;11.15;100.00;100935.38;6214339;23;20000;-89
2021/05/20 02:39:50;;;;;;;3.28;1.33;;;;;;;11.08;100.00;100933.13;6215603;23;20004;-89
2021/05/20 02:42:16;;;;;;;3.47;1.17;;;;;;;11.05;100.00;100927.22;6215437;23;20004;-88
2021/05/20 02:44:41;;;;;;;4.13;1.30;;;;;;;10.95;100.00;100934.81;6215956;23;20032;-89
2021/05/20 02:47:06;;;;;;;5.07;1.20;;;;;;;10.84;100.00;100924.09;6216108;23;19996;-88
2021/05/20 02:49:32;;;;;;;7.15;1.65;;;;;;;10.89;100.00;100916.78;6215994;23;19997;-89
2021/05/20 02:51:57;;;;;;;3.17;1.27;;;;;;;10.86;100.00;100922.22;6215931;23;20005;-89
2021/05/20 02:54:23;;;;;;;7.32;1.50;;;;;;;10.86;100.00;100916.97;6216047;23;20001;-88
2021/05/20 02:56:48;;;;;;;3.78;1.15;;;;;;;10.78;100.00;100920.09;6216391;23;20098;-88
2021/05/20 02:59:14;;;;;;;3.78;1.10;;;;;;;10.74;100.00;100912.47;6216274;23;20506;-89
2021/05/20 03:01:43;;;;;;;3.72;1.20;;;;;;;10.92;100.00;100919.25;6215666;23;20008;-89
2021/05/20 03:04:09;;;;;;;3.92;1.42;;;;;;;11.01;100.00;100904.69;6215892;23;20001;-89
2021/05/20 03:06:35;;;;;;;2.30;0.90;;;;;;;10.93;100.00;100901.69;6215866;23;20107;-88
2021/05/20 03:09:00;;;;;;;2.33;1.13;;;;;;;10.90;100.00;100898.31;6216097;23;20035;-89
2021/05/20 03:11:27;;;;;;;4.78;1.10;;;;;;;10.97;100.00;100890.88;6215438;23;20083;-89
2021/05/20 03:13:52;;;;;;;10.43;3.42;;;;;;;10.94;100.00;100891.09;6215964;23;20005;-88
2021/05/20 03:16:18;;;;;;;3.65;1.58;;;;;;;10.94;100.00;100888.47;6215838;23;20388;-89
2021/05/20 03:18:43;;;;;;;6.57;1.52;;;;;;;10.96;100.00;100881.34;6215889;23;20453;-89
2021/05/20 03:21:09;;;;;;;6.35;0.98;;;;;;;10.99;100.00;100870.63;6215477;23;20412;-89
2021/05/20 03:23:34;;;;;;;5.45;1.20;;;;;;;11.01;100.00;100874.00;6215312;23;20312;-89
2021/05/20 03:25:59;;;;;;;2.53;1.20;;;;;;;11.00;100.00;100877.56;6215611;23;20000;-88
2021/05/20 03:28:25;;;;;;;3.70;1.23;;;;;;;11.02;100.00;100869.56;6215690;23;20000;-89
2021/05/20 03:30:50;;;;;;;6.28;2.13;;;;;;;11.03;100.00;100861.59;6215059;23;20478;-89
2021/05/20 03:33:15;;;;;;;2.20;1.33;;;;;;;11.02;100.00;100859.94;6215196;23;20005;-89
2021/05/20 03:35:41;;;;;;;5.05;1.40;;;;;;;11.06;100.00;100857.97;6215122;23;20004;-88
2021/05/20 03:38:06;;;;;;;4.28;1.50;;;;;;;11.03;100.00;100861.59;6215403;23;20005;-89
2021/05/20 03:40:32;;;;;;;5.93;1.50;;;;;;;11.27;100.00;100858.38;6215195;23;20004;-88
2021/05/20 03:42:57;;;;;;;3.97;1.45;;;;;;;11.36;100.00;100856.97;6215398;23;20043;-89
2021/05/20 03:45:22;;;;;;;2.85;1.30;;;;;;;11.35;100.00;100852.63;6215323;23;20019;-89
2021/05/20 03:47:48;;;;;;;4.20;1.17;;;;;;;11.36;100.00;100849.91;6215581;23;20004;-89
2021/05/20 03:50:13;;;;;;;6.03;1.33;;;;;;;11.20;100.00;100847.41;6215327;23;20011;-89
2021/05/20 03:52:39;;;;;;;4.18;1.05;;;;;;;11.13;100.00;100832.13;6215466;23;20304;-87
2021/05/20 03:55:05;;;;;;;1.70;1.20;;;;;;;11.14;100.00;100832.03;6215435;23;20001;-89
2021/05/20 03:57:30;;;;;;;3.75;1.40;;;;;;;11.08;100.00;100816.66;6215881;23;20253;-88
2021/05/20 03:59:56;;;;;;;3.38;1.50;;;;;;;11.06;100.00;100831.69;6215247;23;20219;-89
2021/05/20 04:02:21;;;;;;;2.05;1.13;;;;;;;11.09;100.00;100824.41;6213260;23;20000;-89
2021/05/20 04:04:47;;;;;;;4.90;1.60;;;;;;;11.17;100.00;100821.31;6215372;23;20411;-89
2021/05/20 04:07:12;;;;;;;4.68;1.50;;;;;;;11.12;100.00;100812.91;6215165;23;20079;-88
2021/05/20 04:09:37;;;;;;;6.95;1.90;;;;;;;11.14;100.00;100818.03;6214545;23;20008;-88
2021/05/20 04:12:03;;;;;;;3.13;1.23;;;;;;;11.06;100.00;100814.13;6214535;23;20032;-88
2021/05/20 04:14:28;;;;;;;2.35;1.40;;;;;;;11.08;100.00;100817.50;6214550;23;20000;-89
2021/05/20 04:16:54;;;;;;;4.78;1.70;;;;;;;11.11;100.00;100806.78;6215174;23;20010;-89
2021/05/20 04:19:19;;;;;;;7.47;1.63;;;;;;;11.10;100.00;100799.84;6214654;23;20000;-87
2021/05/20 04:21:45;;;;;;;5.35;1.40;;;;;;;11.38;100.00;100789.34;6214207;23;20011;-87
2021/05/20 04:24:10;;;;;;;2.30;1.23;;;;;;;11.54;98.95;100786.56;6214774;23;20083;-87
2021/05/20 04:26:36;;;;;;;5.00;1.35;;;;;;;11.59;98.21;100792.34;6215021;23;20039;-88
2021/05/20 04:29:01;;;;;;;4.72;1.08;;;;;;;11.55;97.80;100789.06;6214513;23;20005;-89
2021/05/20 04:31:27;;;;;;;2.65;1.50;;;;;;;11.63;97.45;100780.66;6214531;23;20015;-88
2021/05/20 04:33:52;;;;;;;2.80;1.33;;;;;;;11.67;97.69;100782.13;6213055;23;20004;-88
2021/05/20 04:36:17;;;;;;;10.05;1.88;;;;;;;11.75;96.67;100779.00;6212945;23;20308;-88
2021/05/20 04:38:43;;;;;;;2.83;1.33;;;;;;;11.69;96.89;100764.50;6214582;23;20028;-88
2021/05/20 04:41:08;;;;;;;6.32;1.65;;;;;;;11.76;96.19;100770.19;6214607;23;20005;-88
2021/05/20 04:43:34;;;;;;;4.40;1.38;;;;;;;11.79;96.27;100765.56;6214654;23;20054;-88
2021/05/20 04:45:59;;;;;;;6.28;1.58;;;;;;;11.77;96.15;100767.44;6214481;23;20001;-89
2021/05/20 04:48:25;;;;;;;3.03;1.42;;;;;;;11.74;96.62;100778.16;6214494;23;20008;-89
2021/05/20 04:50:51;;;;;;;3.33;1.50;;;;;;;11.85;96.19;100769.56;6214188;23;20375;-87
2021/05/20 04:53:16;;;;;;;5.57;1.58;;;;;;;11.94;95.35;100763.69;6214424;23;20004;-88
2021/05/20 04:55:41;;;;;;;8.38;1.77;;;;;;;11.93;95.49;100761.16;6214863;23;20004;-89
2021/05/20 04:58:07;;;;;;;2.92;1.40;;;;;;;12.04;94.81;100758.66;6214450;23;20004;-87
2021/05/20 05:00:32;;;;;;;7.38;1.60;;;;;;;12.12;94.23;100753.69;6214232;23;20012;-88
2021/05/20 05:02:58;;;;;;;3.50;1.45;;;;;;;12.10;95.03;100753.81;6214091;23;20123;-88
2021/05/20 05:05:24;;;;;;;10.27;1.70;;;;;;;12.19;94.67;100749.69;6212490;23;20004;-88
2021/05/20 05:07:49;;;;;;;6.28;1.92;;;;;;;12.17;93.85;100746.34;6214839;23;20008;-88
2021/05/20 05:10:15;;;;;;;14.32;2.80;;;;;;;12.26;94.42;100747.47;6213728;23;20009;-88
2021/05/20 05:12:40;;;;;;;4.47;1.70;;;;;;;12.31;93.94;100726.94;6213940;23;20067;-88
2021/05/20 05:15:07;;;;;;;5.25;1.88;;;;;;;12.23;94.53;100722.22;6214295;23;20080;-88
2021/05/20 05:17:32;;;;;;;6.55;2.47;;;;;;;12.28;94.13;100720.13;6214225;23;19997;-89
2021/05/20 05:19:58;;;;;;;7.18;2.20;;;;;;;12.31;93.37;100721.69;6213340;23;20011;-88
2021/05/20 05:22:23;;;;;;;5.90;1.88;;;;;;;12.36;93.54;100714.31;6214336;23;20040;-88
2021/05/20 05:24:49;;;;;;;8.05;2.20;;;;;;;12.43;93.05;100709.44;6214178;23;20008;-89
2021/05/20 05:27:15;;;;;;;6.70;2.10;;;;;;;12.46;93.28;100711.84;6214095;23;20011;-88
2021/05/20 05:29:42;;;;;;;5.35;1.95;;;;;;;12.44;93.18;100711.09;6218073;23;20019;-87
2021/05/20 05:32:07;;;;;;;7.22;2.28;;;;;;;12.13;95.20;100700.13;6215892;23;20026;-87
2021/05/20 05:34:33;;;;;;;11.02;2.20;;;;;;;12.45;92.88;100694.38;6213874;23;20348;-87
2021/05/20 05:37:00;;;;;;;6.70;2.00;;;;;;;12.52;93.14;100685.09;6213804;23;20028;-86
2021/05/20 05:39:25;;;;;;;9.30;2.63;;;;;;;12.50;93.20;100693.09;6214038;23;20012;-87
2021/05/20 05:41:50;;;;;;;7.43;2.00;;;;;;;12.62;92.92;100685.28;6214249;23;20009;-87
2021/05/20 05:44:16;;;;;;;5.20;2.13;;;;;;;12.66;93.03;100682.28;6214098;23;20005;-87
2021/05/20 05:46:43;;;;;;;8.35;2.65;;;;;;;12.51;93.41;100675.50;6214074;23;20005;-87
2021/05/20 05:49:14;;;;;;;7.65;2.47;;;;;;;12.20;96.24;100668.94;6213106;23;20007;-87
2021/05/20 05:51:44;;;;;;;;;;;;;;;12.55;94.33;100663.78;6214044;23;20011;-87
2021/05/20 05:54:09;;;;;;;6.18;2.80;;;;;;;12.45;95.20;100653.06;6213990;23;19915;-86
2021/05/20 05:56:35;;;;;;;12.63;2.83;;;;;;;12.58;93.96;100653.03;6213694;23;20088;-86
2021/05/20 05:59:00;;;;;;;8.05;2.78;;;;;;;12.66;94.00;100649.84;6237400;23;20008;-86
2021/05/20 06:01:26;;;;;;;12.57;2.88;;;;;;;12.77;93.65;100646.41;6213776;23;20350;-88
2021/05/20 06:03:52;;;;;;;7.93;2.80;;;;;;;12.80;93.75;100640.94;6213262;23;20407;-90
2021/05/20 06:06:17;;;;;;;7.47;2.95;;;;;;;12.85;93.48;100636.16;6214001;23;20055;-89
2021/05/20 06:08:42;;;;;;;7.15;2.90;;;;;;;12.95;93.08;100626.59;6213071;23;20080;-89
2021/05/20 06:11:08;;;;;;;10.82;2.75;;;;;;;12.85;94.02;100615.91;6213836;23;20007;-89
2021/05/20 06:13:33;;;;;;;12.50;3.10;;;;;;;13.00;93.41;100621.00;6214611;23;20335;-89
2021/05/20 06:15:58;;;;;;;14.20;3.72;;;;;;;12.96;94.06;100615.13;6216141;23;20011;-89
2021/05/20 06:18:24;;;;;;;12.13;3.63;;;;;;;12.91;94.67;100598.78;6214924;23;20003;-89
2021/05/20 06:20:50;;;;;;;7.35;3.03;;;;;;;12.97;94.26;100598.34;6216014;23;20032;-89
2021/05/20 06:23:15;;;;;;;12.68;3.60;;;;;;;12.98;94.40;100596.56;6216108;23;19997;-89
2021/05/20 06:25:41;;;;;;;12.18;2.88;;;;;;;12.77;96.29;100584.00;6214656;23;20001;-89
2021/05/20 06:28:07;;;;;;;10.57;3.25;;;;;;;12.96;95.48;100580.84;6215826;23;20447;-88
2021/05/20 06:30:33;;;;;;;9.05;3.30;;;;;;;12.99;95.76;100570.06;6215404;23;20001;-89
2021/05/20 06:32:58;;;;;;;9.93;3.67;;;;;;;13.14;94.96;100580.44;6215884;23;20040;-89
2021/05/20 06:35:23;;;;;;;11.07;3.10;;;;;;;13.24;95.20;100586.69;6216310;23;20000;-88
2021/05/20 06:37:50;;;;;;;10.85;3.05;;;;;;;13.41;94.33;100570.44;6215651;23;20481;-88
2021/05/20 06:40:16;;;;;;;12.57;3.30;;;;;;;13.45;93.55;100561.31;6216594;23;20047;-87
2021/05/20 06:42:41;;;;;;;5.68;2.83;;;;;;;13.37;94.69;100561.09;6215601;23;20011;-89
2021/05/20 06:45:07;;;;;;;13.95;2.80;;;;;;;13.32;94.17;100557.94;6215800;23;20000;-88
2021/05/20 06:47:33;;;;;;;6.32;3.25;;;;;;;13.44;93.77;100554.34;6215495;23;20023;-89
2021/05/20 06:49:58;;;;;;;15.82;3.17;;;;;;;13.33;94.27;100533.28;6212874;23;20407;-88
2021/05/20 06:52:24;;;;;;;8.57;2.97;;;;;;;13.28;94.81;100533.56;6215049;23;20005;-88
2021/05/20 06:54:49;;;;;;;12.00;3.65;;;;;;;13.31;94.39;100535.19;6215472;23;20000;-87
2021/05/20 08:52:19;;;;;;;11.10;1.73;;;;;;;13.34;91.97;100207.94;5116463;27;20392;-85
2021/05/20 08:54:45;;;;;;;19.73;2.10;;;;;;;13.52;90.16;100216.13;5118133;28;20035;-85
2021/05/20 08:57:10;;;;;;;12.00;2.15;;;;;;;13.66;88.31;100193.84;5118042;28;20028;-83
2021/05/20 08:59:35;;;;;;;21.33;2.60;;;;;;;13.66;87.34;100196.50;5099051;28;20119;-85
2021/05/20 09:02:01;;;;;;;12.95;2.00;;;;;;;13.46;88.28;100179.72;5093575;28;20039;-85
2021/05/20 09:04:26;;;;;;;10.43;2.15;;;;;;;13.45;87.68;100189.44;5095977;28;20070;-87
2021/05/20 09:06:59;;;;;;;9.90;2.35;;;;;;;13.53;86.06;100161.59;5112428;28;20020;-84
2021/05/20 09:09:32;;;;;;;9.13;1.92;;;;;;;13.54;86.50;100190.44;5103014;28;20036;-84
2021/05/20 09:11:58;;;;;;;9.13;1.65;;;;;;;13.72;86.19;100159.03;5117735;28;20469;-85
2021/05/20 09:14:42;;;;;;;15.75;1.73;;;;;;;13.73;85.05;100158.09;5122294;28;20067;-85
2021/05/20 09:17:19;;;;;;;10.32;1.48;;;;;;;13.58;83.59;100152.28;5102009;28;20516;-86
2021/05/20 09:19:58;;;;;;;10.65;1.25;;;;;;;13.77;83.10;100150.75;5099691;28;20028;-87
2021/05/20 09:22:25;;;;;;;9.30;1.50;;;;;;;14.11;83.12;100132.81;5113448;28;20027;-86
2021/05/20 09:24:56;;;;;;;6.85;1.10;;;;;;;14.08;78.95;100120.75;5119045;28;20020;-87
2021/05/20 09:27:48;;;;;;;12.20;1.20;;;;;;;14.32;78.07;100127.47;5106623;28;20032;-86
2021/05/20 09:30:20;;;;;;;12.48;1.85;;;;;;;14.21;78.12;100127.56;5094750;28;20366;-88
2021/05/20 09:32:52;;;;;;;6.13;0.93;;;;;;;14.38;77.05;100123.47;5103860;28;20146;-86
2021/05/20 09:35:28;;;;;;;9.48;1.38;;;;;;;14.40;77.07;100124.16;5105837;28;20032;-87
2021/05/20 09:38:07;;;;;;;6.53;1.50;;;;;;;14.42;75.59;100124.84;5100132;28;20377;-87
2021/05/20 09:40:38;;;;;;;8.90;1.30;;;;;;;14.67;75.99;100112.94;5097299;28;20114;-88
2021/05/20 09:43:17;;;;;;;7.43;1.40;;;;;;;14.80;73.88;100104.75;5104085;28;20058;-87
2021/05/20 09:45:43;;;;;;;9.75;1.77;;;;;;;15.03;72.52;100123.84;5088220;28;20452;-87
2021/05/20 09:48:09;;;;;;;8.38;1.35;;;;;;;14.86;71.03;100089.16;5099718;28;20020;-87
2021/05/20 09:50:39;;;;;;;6.28;1.45;;;;;;;15.02;69.51;100096.53;5097837;28;20473;-86
2021/05/20 09:53:16;;;;;;;3.75;0.77;;;;;;;15.03;68.34;100089.47;5097599;28;20019;-87
2021/05/20 09:55:47;;;;;;;7.07;1.02;;;;;;;14.91;67.26;100078.19;5102393;28;20496;-87
2021/05/20 09:58:14;;;;;;;12.50;1.27;;;;;;;14.94;66.54;100054.09;5117019;28;20031;-86
2021/05/20 10:00:40;;;;;;;10.65;1.15;;;;;;;14.77;67.55;100087.38;5116434;27;20457;-87
2021/05/20 10:03:10;;;;;;;30.52;2.30;;;;;;;14.85;67.08;100090.16;5083784;28;20032;-86
2021/05/20 10:05:38;;;;;;;10.93;1.92;;;;;;;14.93;67.71;100085.97;5079827;28;20031;-87
2021/05/20 10:08:07;;;;;;;8.70;0.98;;;;;;;14.98;67.59;100070.53;5083799;28;20042;-87
2021/05/20 10:10:36;;;;;;;5.32;1.92;;;;;;;14.97;68.60;100056.47;5089458;28;20039;-86
2021/05/20 10:13:04;;;;;;;9.38;1.45;;;;;;;14.55;71.61;100040.88;5075420;28;20025;-86
2021/05/20 10:15:31;;;;;;;10.70;1.33;;;;;;;14.25;74.69;100047.13;5083857;28;20032;-86
2021/05/20 10:17:57;;;;;;;8.20;1.23;;;;;;;14.09;76.53;100052.94;5077940;28;20058;-86
2021/05/20 10:20:23;;;;;;;6.90;1.30;;;;;;;14.33;76.21;100023.50;5082388;28;20028;-86
2021/05/20 10:22:49;;;;;;;7.15;1.10;;;;;;;14.11;75.91;100029.03;5087436;28;20462;-87
2021/05/20 10:25:17;;;;;;;3.45;1.05;;;;;;;14.01;76.97;100042.22;5093527;28;20023;-86
2021/05/20 10:27:42;;;;;;;9.35;1.20;;;;;;;14.10;79.10;100020.28;5092665;28;20077;-86
2021/05/20 10:30:13;;;;;;;6.97;1.23;;;;;;;13.83;79.99;100042.84;5078147;28;20374;-86
2021/05/20 10:32:40;;;;;;;8.57;1.60;;;;;;;13.68;82.99;100036.25;5087199;28;20036;-87
2021/05/20 10:35:09;;;;;;;7.38;1.13;;;;;;;13.63;86.31;100060.41;5074665;28;20378;-87
2021/05/20 10:37:39;;;;;;;5.35;1.13;;;;;;;13.40;85.69;100049.19;5074930;28;20028;-87
2021/05/20 10:40:09;;;;;;;6.55;1.20;;;;;;;13.57;84.87;100034.56;5074456;28;20059;-86
2021/05/20 10:42:34;;;;;;;9.57;1.52;;;;;;;13.67;83.34;100026.69;5074265;28;20462;-87
2021/05/20 10:45:22;;;;;;;4.28;1.00;;;;;;;13.73;81.48;100022.69;5074386;28;20036;-86
2021/05/20 10:48:03;;;;;;;7.38;1.35;;;;;;;13.74;80.58;100024.34;5088791;28;20056;-87
2021/05/20 10:50:53;;;;;;;5.75;0.95;;;;;;;13.71;79.11;100008.81;5094234;28;20123;-87
2021/05/20 10:53:37;;;;;;;7.20;1.20;;;;;;;13.92;78.98;100006.91;5094420;28;20020;-87
2021/05/20 10:56:03;;;;;;;15.23;1.23;;;;;;;13.89;78.29;100007.19;5094448;28;20100;-87
2021/05/20 10:58:30;;;;;;;12.73;1.08;;;;;;;13.70;78.24;100002.66;5093733;28;20473;-87
2021/05/20 11:00:56;;;;;;;9.15;1.45;;;;;;;13.73;78.95;99999.78;5094230;28;20435;-87
2021/05/20 11:03:52;;;;;;;10.00;1.48;;;;;;;13.73;80.16;99985.75;5089899;28;20028;-87
2021/05/20 11:06:19;;;;;;;4.78;1.17;;;;;;;13.67;80.92;99987.13;5086988;28;20057;-87
2021/05/20 11:08:44;;;;;;;11.55;1.70;;;;;;;13.75;80.62;99987.28;5084736;28;20032;-87
2021/05/20 11:11:30;;;;;;;5.35;1.48;;;;;;;14.08;79.61;99943.84;5079264;28;20036;-87
2021/05/20 11:13:56;;;;;;;4.80;0.77;;;;;;;13.61;80.01;99940.19;5094649;28;20481;-86
2021/05/20 11:16:32;;;;;;;6.03;0.60;;;;;;;13.63;81.98;99932.97;5114245;28;20392;-87
2021/05/20 11:22:07;;;;;;;6.78;1.42;;;;;;;13.55;83.76;99909.91;5073474;28;20048;-87
2021/05/20 11:24:39;;;;;;;4.45;0.80;;;;;;;13.62;85.13;99899.63;5066683;28;20247;-87
2021/05/20 11:27:08;;;;;;;5.00;0.77;;;;;;;13.67;86.06;99890.34;5086369;28;20021;-85
2021/05/20 11:29:39;;;;;;;5.65;0.70;;;;;;;13.78;85.99;99868.25;5077323;28;20033;-87
2021/05/20 11:32:21;;;;;;;4.40;0.73;;;;;;;13.83;87.47;99865.22;5084178;28;20034;-88
2021/05/20 11:37:24;;;;;;;4.28;0.90;;;;;;;13.39;95.55;99841.84;5083665;28;20037;-87
2021/05/20 11:39:50;;;;;;;2.42;1.15;;;;;;;12.99;99.21;99837.41;5072998;28;20385;-87
2021/05/20 11:42:26;;;;;;;8.45;1.50;;;;;;;13.12;100.00;99828.44;5080233;28;20115;-87
2021/05/20 11:44:52;;;;;;;4.25;1.60;;;;;;;12.98;100.00;99822.56;5081399;28;20389;-87
2021/05/20 11:47:20;;;;;;;9.82;2.08;;;;;;;12.96;100.00;99798.16;5091083;28;20032;-87
2021/05/20 11:49:45;;;;;;;5.00;1.17;;;;;;;13.15;100.00;99812.34;5093005;28;20044;-87
2021/05/20 11:52:11;;;;;;;5.50;1.30;;;;;;;13.05;100.00;99791.22;5090792;28;20086;-87
2021/05/20 11:54:38;;;;;;;8.13;1.80;;;;;;;13.14;100.00;99800.16;5082269;28;20032;-87
2021/05/20 11:57:06;;;;;;;10.07;2.05;;;;;;;13.32;100.00;99792.44;5076315;28;20042;-87
2021/05/20 11:59:31;;;;;;;5.22;1.00;;;;;;;13.09;100.00;99780.31;5082667;28;20024;-88
2021/05/20 12:01:57;;;;;;;7.63;1.05;;;;;;;13.22;100.00;99795.03;5087516;28;20495;-88
2021/05/20 12:04:25;;;;;;;6.25;1.27;;;;;;;13.15;100.00;99773.66;5083763;28;20108;-89
2021/05/20 12:06:51;;;;;;;6.53;1.30;;;;;;;13.33;100.00;99773.84;5075943;28;20044;-90
2021/05/20 12:09:17;;;;;;;6.40;1.30;;;;;;;13.28;100.00;99776.84;5072576;28;20085;-89
2021/05/20 12:11:43;;;;;;;6.03;1.27;;;;;;;13.45;100.00;99766.63;5072311;28;20448;-88
2021/05/20 12:14:32;;;;;;;5.22;1.63;;;;;;;13.51;100.00;99757.31;5072492;28;20066;-90
2021/05/20 12:17:06;;;;;;;11.05;1.20;;;;;;;13.33;100.00;99751.91;5072225;28;20497;-90
2021/05/20 12:19:34;;;;;;;64.40;6.50;;;;;;;13.36;100.00;99765.66;5078131;28;20065;-90
2021/05/20 12:22:05;;;;;;;4.57;1.10;;;;;;;13.31;100.00;99759.97;5082682;28;20024;-87
2021/05/20 12:24:33;;;;;;;6.05;1.13;;;;;;;13.54;100.00;99741.22;5092708;28;20415;-88
2021/05/20 12:27:13;;;;;;;6.75;1.20;;;;;;;13.45;100.00;99746.38;5078345;28;20032;-88
2021/05/20 12:29:40;;;;;;;6.80;1.10;;;;;;;13.26;100.00;99735.78;5077589;28;20024;-88
2021/05/20 12:32:06;;;;;;;6.65;0.90;;;;;;;13.61;100.00;99718.59;5078733;28;20024;-89
2021/05/20 12:34:31;;;;;;;6.47;1.58;;;;;;;13.47;100.00;99744.44;5077565;28;20025;-88
2021/05/20 12:37:05;;;;;;;4.47;1.42;;;;;;;13.63;100.00;99721.94;5073210;28;20048;-89
2021/05/20 12:39:31;;;;;;;5.50;0.82;;;;;;;13.45;100.00;99706.81;5092101;28;20291;-88
2021/05/20 12:41:58;;;;;;;5.70;1.10;;;;;;;13.49;100.00;99704.72;5080392;28;20029;-87
2021/05/20 12:44:24;;;;;;;5.53;0.80;;;;;;;13.38;100.00;99695.16;5071788;28;20047;-87
2021/05/20 12:46:49;;;;;;;3.30;0.63;;;;;;;13.34;100.00;99685.03;5071811;28;20537;-88
2021/05/20 12:49:22;;;;;;;4.85;0.80;;;;;;;13.76;100.00;99680.22;5072030;28;20489;-88
2021/05/20 12:52:00;;;;;;;5.63;0.88;;;;;;;13.32;100.00;99687.81;5075337;28;20032;-86
2021/05/20 12:54:28;;;;;;;6.70;0.95;;;;;;;13.52;100.00;99677.25;5087114;28;20030;-87
2021/05/20 12:57:05;;;;;;;6.07;1.15;;;;;;;13.29;100.00;99677.53;5089886;28;20025;-87
2021/05/20 12:59:39;;;;;;;4.97;1.25;;;;;;;13.55;100.00;99661.16;5072734;28;20103;-90
2021/05/20 13:04:11;;;;;;;7.32;1.00;;;;;;;13.45;100.00;99638.25;5091686;27;20350;-93
2021/05/20 13:06:37;;;;;;;5.47;1.10;;;;;;;13.54;100.00;99646.28;5094598;28;20028;-94
2021/05/20 13:09:06;;;;;;;5.40;1.20;;;;;;;13.60;100.00;99649.16;5091746;28;20031;-95
2021/05/20 13:11:33;;;;;;;6.20;1.20;;;;;;;13.59;100.00;99631.69;5092785;28;20028;-96
2021/05/20 13:14:41;;;;;;;5.43;0.90;;;;;;;13.93;100.00;99638.25;5073615;28;20037;-96
2021/05/20 13:17:25;;;;;;;3.47;1.20;;;;;;;13.78;100.00;99636.06;5078192;28;20044;-95
2021/05/20 13:22:39;;;;;;;3.50;0.85;;;;;;;13.73;100.00;99617.22;5090050;28;20041;-96
2021/05/20 13:25:16;;;;;;;3.60;1.02;;;;;;;13.75;100.00;99590.69;5079338;28;20020;-96
2021/05/20 13:27:41;;;;;;;2.97;0.70;;;;;;;13.60;100.00;99577.13;5073429;28;20036;-96
2021/05/20 13:30:15;;;;;;;12.90;2.15;;;;;;;13.71;100.00;99576.13;5073106;28;20033;-96
2021/05/20 13:32:52;;;;;;;72.72;6.03;;;;;;;13.64;100.00;99558.22;5085168;28;20084;-96